sensor_id;sensor_type;location;lat;lon;timestamp;pressure;altitude;pressure_sealevel;temperature;humidity
16777;BME280;8505;49.456;8.164;2023-02-12T00:00:42;101855.88;;;5.93;79.82
16777;BME280;8505;49.456;8.164;2023-02-12T00:03:10;101848.25;;;5.88;80.37
16777;BME280;8505;49.456;8.164;2023-02-12T00:05:39;101844.78;;;5.88;79.74
16777;BME280;8505;49.456;8.164;2023-02-12T00:08:07;101847.91;;;5.79;80.26
16777;BME280;8505;49.456;8.164;2023-02-12T00:10:39;101848.97;;;5.60;81.53
16777;BME280;8505;49.456;8.164;2023-02-12T00:13:07;101840.50;;;5.55;81.34
16777;BME280;8505;49.456;8.164;2023-02-12T00:15:38;101834.66;;;5.50;82.07
16777;BME280;8505;49.456;8.164;2023-02-12T00:18:06;101836.34;;;5.51;81.74
16777;BME280;8505;49.456;8.164;2023-02-12T00:20:35;101836.94;;;5.56;81.34
16777;BME280;8505;49.456;8.164;2023-02-12T00:23:03;101837.53;;;5.61;81.63
16777;BME280;8505;49.456;8.164;2023-02-12T00:25:31;101831.94;;;5.52;81.29
16777;BME280;8505;49.456;8.164;2023-02-12T00:27:59;101841.44;;;5.54;81.22
16777;BME280;8505;49.456;8.164;2023-02-12T00:30:27;101842.13;;;5.42;82.10
16777;BME280;8505;49.456;8.164;2023-02-12T00:32:56;101837.53;;;5.46;81.64
16777;BME280;8505;49.456;8.164;2023-02-12T00:35:24;101840.38;;;5.43;81.81
16777;BME280;8505;49.456;8.164;2023-02-12T00:37:51;101836.63;;;5.47;82.06
16777;BME280;8505;49.456;8.164;2023-02-12T00:40:19;101839.09;;;5.34;82.46
16777;BME280;8505;49.456;8.164;2023-02-12T00:42:47;101838.25;;;5.34;82.61
16777;BME280;8505;49.456;8.164;2023-02-12T00:45:14;101839.16;;;5.33;82.48
16777;BME280;8505;49.456;8.164;2023-02-12T00:47:42;101838.16;;;5.35;81.98
16777;BME280;8505;49.456;8.164;2023-02-12T00:50:11;101845.34;;;5.32;82.32
16777;BME280;8505;49.456;8.164;2023-02-12T00:52:39;101848.75;;;5.34;82.78
16777;BME280;8505;49.456;8.164;2023-02-12T00:55:06;101836.69;;;5.45;82.04
16777;BME280;8505;49.456;8.164;2023-02-12T00:57:34;101838.66;;;5.42;82.05
16777;BME280;8505;49.456;8.164;2023-02-12T01:00:02;101843.56;;;5.32;82.46
16777;BME280;8505;49.456;8.164;2023-02-12T01:02:30;101851.19;;;5.21;82.70
16777;BME280;8505;49.456;8.164;2023-02-12T01:04:58;101841.63;;;5.20;83.10
16777;BME280;8505;49.456;8.164;2023-02-12T01:07:27;101848.91;;;5.15;83.48
16777;BME280;8505;49.456;8.164;2023-02-12T01:09:54;101854.50;;;5.09;83.35
16777;BME280;8505;49.456;8.164;2023-02-12T01:12:22;101855.16;;;5.12;83.28
16777;BME280;8505;49.456;8.164;2023-02-12T01:14:49;101852.91;;;5.22;82.50
16777;BME280;8505;49.456;8.164;2023-02-12T01:17:17;101856.19;;;5.25;82.88
16777;BME280;8505;49.456;8.164;2023-02-12T01:19:45;101853.50;;;5.27;83.04
16777;BME280;8505;49.456;8.164;2023-02-12T01:22:12;101868.31;;;5.28;82.64
16777;BME280;8505;49.456;8.164;2023-02-12T01:24:42;101853.16;;;5.33;82.78
16777;BME280;8505;49.456;8.164;2023-02-12T01:27:09;101855.00;;;5.31;82.01
16777;BME280;8505;49.456;8.164;2023-02-12T01:29:37;101857.47;;;5.34;82.32
16777;BME280;8505;49.456;8.164;2023-02-12T01:32:05;101862.41;;;5.24;82.87
16777;BME280;8505;49.456;8.164;2023-02-12T01:34:32;101858.94;;;5.24;82.62
16777;BME280;8505;49.456;8.164;2023-02-12T01:37:00;101848.50;;;5.22;82.77
16777;BME280;8505;49.456;8.164;2023-02-12T01:39:28;101844.19;;;5.21;82.94
16777;BME280;8505;49.456;8.164;2023-02-12T01:41:57;101852.66;;;5.11;83.48
16777;BME280;8505;49.456;8.164;2023-02-12T01:44:28;101847.28;;;5.12;83.25
16777;BME280;8505;49.456;8.164;2023-02-12T01:46:57;101854.25;;;5.13;83.22
16777;BME280;8505;49.456;8.164;2023-02-12T01:49:29;101842.22;;;5.09;83.20
16777;BME280;8505;49.456;8.164;2023-02-12T01:52:02;101843.84;;;5.12;83.35
16777;BME280;8505;49.456;8.164;2023-02-12T01:54:32;101838.41;;;5.15;83.36
16777;BME280;8505;49.456;8.164;2023-02-12T01:57:04;101838.25;;;5.18;82.84
16777;BME280;8505;49.456;8.164;2023-02-12T01:59:34;101844.44;;;5.17;82.75
16777;BME280;8505;49.456;8.164;2023-02-12T02:02:03;101843.31;;;5.21;83.03
16777;BME280;8505;49.456;8.164;2023-02-12T02:04:37;101843.59;;;5.16;82.92
16777;BME280;8505;49.456;8.164;2023-02-12T02:07:07;101849.25;;;5.09;83.47
16777;BME280;8505;49.456;8.164;2023-02-12T02:09:37;101847.41;;;5.11;83.57
16777;BME280;8505;49.456;8.164;2023-02-12T02:12:07;101841.97;;;5.14;83.59
16777;BME280;8505;49.456;8.164;2023-02-12T02:14:55;101842.31;;;5.08;83.97
16777;BME280;8505;49.456;8.164;2023-02-12T02:17:43;101833.16;;;5.15;83.38
16777;BME280;8505;49.456;8.164;2023-02-12T02:23:39;101842.16;;;5.11;83.89
16777;BME280;8505;49.456;8.164;2023-02-12T02:26:36;101838.59;;;5.12;83.52
16777;BME280;8505;49.456;8.164;2023-02-12T02:32:23;101838.66;;;4.95;83.37
16777;BME280;8505;49.456;8.164;2023-02-12T02:34:57;101836.13;;;5.09;83.73
16777;BME280;8505;49.456;8.164;2023-02-12T02:37:30;101836.03;;;5.10;83.39
16777;BME280;8505;49.456;8.164;2023-02-12T02:40:07;101834.94;;;4.99;83.80
16777;BME280;8505;49.456;8.164;2023-02-12T02:42:39;101830.97;;;4.92;84.49
16777;BME280;8505;49.456;8.164;2023-02-12T02:45:12;101830.03;;;4.93;84.54
16777;BME280;8505;49.456;8.164;2023-02-12T02:47:47;101828.84;;;4.98;83.81
16777;BME280;8505;49.456;8.164;2023-02-12T02:50:17;101826.56;;;4.92;84.06
16777;BME280;8505;49.456;8.164;2023-02-12T02:52:49;101829.75;;;5.13;83.81
16777;BME280;8505;49.456;8.164;2023-02-12T02:55:21;101827.97;;;5.13;83.59
16777;BME280;8505;49.456;8.164;2023-02-12T02:57:54;101832.22;;;5.16;83.20
16777;BME280;8505;49.456;8.164;2023-02-12T03:00:25;101831.06;;;5.06;83.72
16777;BME280;8505;49.456;8.164;2023-02-12T03:02:59;101823.84;;;5.09;83.43
16777;BME280;8505;49.456;8.164;2023-02-12T03:05:31;101823.94;;;4.92;84.40
16777;BME280;8505;49.456;8.164;2023-02-12T03:08:04;101823.66;;;4.97;83.85
16777;BME280;8505;49.456;8.164;2023-02-12T03:10:38;101825.69;;;5.07;84.20
16777;BME280;8505;49.456;8.164;2023-02-12T03:13:09;101829.59;;;5.00;83.74
16777;BME280;8505;49.456;8.164;2023-02-12T03:15:41;101826.16;;;5.00;84.19
16777;BME280;8505;49.456;8.164;2023-02-12T03:18:16;101827.56;;;4.89;84.04
16777;BME280;8505;49.456;8.164;2023-02-12T03:20:48;101815.88;;;4.95;84.20
16777;BME280;8505;49.456;8.164;2023-02-12T03:23:23;101829.94;;;4.94;84.13
16777;BME280;8505;49.456;8.164;2023-02-12T03:25:54;101835.34;;;4.91;83.83
16777;BME280;8505;49.456;8.164;2023-02-12T03:28:27;101826.81;;;4.87;84.22
16777;BME280;8505;49.456;8.164;2023-02-12T03:31:05;101825.34;;;4.82;84.43
16777;BME280;8505;49.456;8.164;2023-02-12T03:33:43;101826.31;;;4.81;84.83
16777;BME280;8505;49.456;8.164;2023-02-12T03:36:25;101831.78;;;4.76;85.25
16777;BME280;8505;49.456;8.164;2023-02-12T03:39:00;101827.75;;;4.86;84.86
16777;BME280;8505;49.456;8.164;2023-02-12T03:41:36;101827.03;;;4.83;84.37
16777;BME280;8505;49.456;8.164;2023-02-12T03:44:12;101830.59;;;4.82;84.78
16777;BME280;8505;49.456;8.164;2023-02-12T03:46:46;101832.22;;;4.84;84.71
16777;BME280;8505;49.456;8.164;2023-02-12T03:49:22;101822.66;;;4.83;84.44
16777;BME280;8505;49.456;8.164;2023-02-12T03:51:50;101827.03;;;4.83;84.52
16777;BME280;8505;49.456;8.164;2023-02-12T03:54:20;101820.94;;;4.82;84.59
16777;BME280;8505;49.456;8.164;2023-02-12T03:56:51;101828.31;;;4.76;85.19
16777;BME280;8505;49.456;8.164;2023-02-12T03:59:21;101834.66;;;4.72;85.27
16777;BME280;8505;49.456;8.164;2023-02-12T04:01:52;101832.88;;;4.72;85.20
16777;BME280;8505;49.456;8.164;2023-02-12T04:04:22;101832.53;;;4.78;85.13
16777;BME280;8505;49.456;8.164;2023-02-12T04:06:51;101829.94;;;4.78;85.66
16777;BME280;8505;49.456;8.164;2023-02-12T04:09:21;101827.88;;;4.83;85.39
16777;BME280;8505;49.456;8.164;2023-02-12T04:12:00;101832.38;;;4.81;85.38
16777;BME280;8505;49.456;8.164;2023-02-12T04:14:37;101839.06;;;4.71;85.86
16777;BME280;8505;49.456;8.164;2023-02-12T04:17:13;101842.59;;;4.70;85.83
16777;BME280;8505;49.456;8.164;2023-02-12T04:19:50;101839.22;;;4.68;86.21
16777;BME280;8505;49.456;8.164;2023-02-12T04:22:28;101842.94;;;4.64;86.40
16777;BME280;8505;49.456;8.164;2023-02-12T04:25:06;101852.69;;;4.62;86.96
16777;BME280;8505;49.456;8.164;2023-02-12T04:27:40;101846.47;;;4.63;86.96
16777;BME280;8505;49.456;8.164;2023-02-12T04:30:13;101852.75;;;4.61;86.96
16777;BME280;8505;49.456;8.164;2023-02-12T04:32:46;101853.53;;;4.63;86.74
16777;BME280;8505;49.456;8.164;2023-02-12T04:35:19;101854.28;;;4.65;87.10
16777;BME280;8505;49.456;8.164;2023-02-12T04:37:51;101860.69;;;4.59;86.92
16777;BME280;8505;49.456;8.164;2023-02-12T04:40:22;101851.72;;;4.63;87.00
16777;BME280;8505;49.456;8.164;2023-02-12T04:42:51;101856.91;;;4.65;86.76
16777;BME280;8505;49.456;8.164;2023-02-12T04:45:22;101857.75;;;4.65;86.65
16777;BME280;8505;49.456;8.164;2023-02-12T04:47:50;101855.78;;;4.53;87.39
16777;BME280;8505;49.456;8.164;2023-02-12T04:50:20;101858.56;;;4.50;87.57
16777;BME280;8505;49.456;8.164;2023-02-12T04:52:47;101861.78;;;4.55;87.95
16777;BME280;8505;49.456;8.164;2023-02-12T04:55:15;101862.72;;;4.54;88.29
16777;BME280;8505;49.456;8.164;2023-02-12T04:57:43;101865.34;;;4.54;88.38
16777;BME280;8505;49.456;8.164;2023-02-12T05:00:13;101860.53;;;4.62;88.18
16777;BME280;8505;49.456;8.164;2023-02-12T05:02:41;101863.06;;;4.64;87.85
16777;BME280;8505;49.456;8.164;2023-02-12T05:05:08;101858.66;;;4.64;88.11
16777;BME280;8505;49.456;8.164;2023-02-12T05:07:37;101854.13;;;4.68;87.64
16777;BME280;8505;49.456;8.164;2023-02-12T05:10:06;101850.72;;;4.66;87.76
16777;BME280;8505;49.456;8.164;2023-02-12T05:12:34;101846.31;;;4.66;87.77
16777;BME280;8505;49.456;8.164;2023-02-12T05:15:02;101840.16;;;4.67;87.76
16777;BME280;8505;49.456;8.164;2023-02-12T05:17:30;101841.84;;;4.68;88.20
16777;BME280;8505;49.456;8.164;2023-02-12T05:19:58;101839.97;;;4.70;88.25
16777;BME280;8505;49.456;8.164;2023-02-12T05:22:26;101840.47;;;4.61;88.36
16777;BME280;8505;49.456;8.164;2023-02-12T05:24:55;101840.81;;;4.55;88.44
16777;BME280;8505;49.456;8.164;2023-02-12T05:27:22;101844.81;;;4.45;88.75
16777;BME280;8505;49.456;8.164;2023-02-12T05:29:50;101845.06;;;4.40;88.84
16777;BME280;8505;49.456;8.164;2023-02-12T05:32:17;101851.16;;;4.41;88.78
16777;BME280;8505;49.456;8.164;2023-02-12T05:34:45;101850.00;;;4.46;88.94
16777;BME280;8505;49.456;8.164;2023-02-12T05:37:13;101847.31;;;4.48;88.65
16777;BME280;8505;49.456;8.164;2023-02-12T05:39:40;101847.13;;;4.51;88.47
16777;BME280;8505;49.456;8.164;2023-02-12T05:42:09;101852.22;;;4.54;88.95
16777;BME280;8505;49.456;8.164;2023-02-12T05:44:37;101856.38;;;4.58;88.43
16777;BME280;8505;49.456;8.164;2023-02-12T05:47:05;101853.16;;;4.53;88.70
16777;BME280;8505;49.456;8.164;2023-02-12T05:49:32;101851.06;;;4.60;88.30
16777;BME280;8505;49.456;8.164;2023-02-12T05:52:00;101857.22;;;4.59;88.59
16777;BME280;8505;49.456;8.164;2023-02-12T05:54:27;101857.06;;;4.62;88.08
16777;BME280;8505;49.456;8.164;2023-02-12T05:56:55;101858.38;;;4.53;88.50
16777;BME280;8505;49.456;8.164;2023-02-12T05:59:24;101856.63;;;4.54;88.73
16777;BME280;8505;49.456;8.164;2023-02-12T06:01:52;101855.63;;;4.56;88.51
16777;BME280;8505;49.456;8.164;2023-02-12T06:04:21;101851.06;;;4.60;88.87
16777;BME280;8505;49.456;8.164;2023-02-12T06:06:49;101855.91;;;4.67;88.59
16777;BME280;8505;49.456;8.164;2023-02-12T06:09:17;101856.91;;;4.65;88.83
16777;BME280;8505;49.456;8.164;2023-02-12T06:11:45;101854.03;;;4.69;88.49
16777;BME280;8505;49.456;8.164;2023-02-12T06:14:14;101856.56;;;4.71;88.10
16777;BME280;8505;49.456;8.164;2023-02-12T06:16:45;101856.31;;;4.75;87.97
16777;BME280;8505;49.456;8.164;2023-02-12T06:19:13;101845.16;;;4.72;87.99
16777;BME280;8505;49.456;8.164;2023-02-12T06:21:41;101849.22;;;4.77;88.53
16777;BME280;8505;49.456;8.164;2023-02-12T06:24:11;101848.38;;;4.77;88.38
16777;BME280;8505;49.456;8.164;2023-02-12T06:26:39;101853.19;;;4.69;88.73
16777;BME280;8505;49.456;8.164;2023-02-12T06:29:06;101857.34;;;4.73;88.03
16777;BME280;8505;49.456;8.164;2023-02-12T06:31:35;101856.31;;;4.75;87.82
16777;BME280;8505;49.456;8.164;2023-02-12T06:34:13;101865.16;;;4.74;88.13
16777;BME280;8505;49.456;8.164;2023-02-12T06:36:44;101868.44;;;4.78;88.22
16777;BME280;8505;49.456;8.164;2023-02-12T06:39:14;101868.84;;;4.70;88.23
16777;BME280;8505;49.456;8.164;2023-02-12T06:41:43;101872.56;;;4.66;87.96
16777;BME280;8505;49.456;8.164;2023-02-12T06:44:11;101874.41;;;4.64;88.54
16777;BME280;8505;49.456;8.164;2023-02-12T06:46:39;101878.91;;;4.62;88.86
16777;BME280;8505;49.456;8.164;2023-02-12T06:49:11;101881.03;;;4.71;88.72
16777;BME280;8505;49.456;8.164;2023-02-12T06:51:39;101881.50;;;4.79;88.44
16777;BME280;8505;49.456;8.164;2023-02-12T06:54:12;101879.13;;;4.91;87.94
16777;BME280;8505;49.456;8.164;2023-02-12T06:56:40;101883.28;;;4.95;87.94
16777;BME280;8505;49.456;8.164;2023-02-12T06:59:11;101885.31;;;4.89;87.40
16777;BME280;8505;49.456;8.164;2023-02-12T07:01:39;101884.97;;;4.96;87.50
16777;BME280;8505;49.456;8.164;2023-02-12T07:04:09;101892.94;;;4.94;87.05
16777;BME280;8505;49.456;8.164;2023-02-12T07:06:37;101890.81;;;5.01;87.34
16777;BME280;8505;49.456;8.164;2023-02-12T07:09:05;101895.00;;;5.05;86.65
16777;BME280;8505;49.456;8.164;2023-02-12T07:11:34;101895.59;;;5.10;87.04
16777;BME280;8505;49.456;8.164;2023-02-12T07:14:04;101892.19;;;5.08;86.32
16777;BME280;8505;49.456;8.164;2023-02-12T07:16:31;101898.03;;;5.13;86.43
16777;BME280;8505;49.456;8.164;2023-02-12T07:18:59;101897.97;;;5.14;86.10
16777;BME280;8505;49.456;8.164;2023-02-12T07:21:28;101899.91;;;5.11;85.93
16777;BME280;8505;49.456;8.164;2023-02-12T07:23:57;101900.16;;;5.06;85.92
16777;BME280;8505;49.456;8.164;2023-02-12T07:26:24;101904.28;;;4.95;86.52
16777;BME280;8505;49.456;8.164;2023-02-12T07:28:52;101907.53;;;5.00;86.43
16777;BME280;8505;49.456;8.164;2023-02-12T07:31:21;101909.56;;;5.10;86.50
16777;BME280;8505;49.456;8.164;2023-02-12T07:33:52;101907.19;;;5.06;86.90
16777;BME280;8505;49.456;8.164;2023-02-12T07:36:20;101905.56;;;5.03;86.88
16777;BME280;8505;49.456;8.164;2023-02-12T07:38:49;101903.03;;;5.02;86.58
16777;BME280;8505;49.456;8.164;2023-02-12T07:41:18;101907.03;;;5.09;86.78
16777;BME280;8505;49.456;8.164;2023-02-12T07:43:47;101906.34;;;5.21;86.27
16777;BME280;8505;49.456;8.164;2023-02-12T07:46:18;101909.75;;;5.23;85.59
16777;BME280;8505;49.456;8.164;2023-02-12T07:48:47;101910.41;;;5.26;85.91
16777;BME280;8505;49.456;8.164;2023-02-12T07:51:16;101912.31;;;5.24;85.85
16777;BME280;8505;49.456;8.164;2023-02-12T07:53:44;101916.72;;;5.24;85.60
16777;BME280;8505;49.456;8.164;2023-02-12T07:56:15;101915.41;;;5.31;86.07
16777;BME280;8505;49.456;8.164;2023-02-12T07:58:44;101921.03;;;5.41;85.82
16777;BME280;8505;49.456;8.164;2023-02-12T08:01:15;101915.50;;;5.45;85.44
16777;BME280;8505;49.456;8.164;2023-02-12T08:03:44;101908.03;;;5.38;85.09
16777;BME280;8505;49.456;8.164;2023-02-12T08:06:14;101918.91;;;5.47;85.17
16777;BME280;8505;49.456;8.164;2023-02-12T08:08:42;101909.66;;;5.56;85.11
16777;BME280;8505;49.456;8.164;2023-02-12T08:11:11;101907.44;;;5.64;85.24
16777;BME280;8505;49.456;8.164;2023-02-12T08:13:41;101914.34;;;5.66;84.94
16777;BME280;8505;49.456;8.164;2023-02-12T08:16:10;101919.06;;;5.76;85.31
16777;BME280;8505;49.456;8.164;2023-02-12T08:18:38;101917.38;;;5.90;84.98
16777;BME280;8505;49.456;8.164;2023-02-12T08:21:07;101920.88;;;6.05;84.98
16777;BME280;8505;49.456;8.164;2023-02-12T08:23:35;101924.44;;;6.20;84.03
16777;BME280;8505;49.456;8.164;2023-02-12T08:26:09;101923.53;;;6.05;84.13
16777;BME280;8505;49.456;8.164;2023-02-12T08:28:38;101922.50;;;6.37;84.66
16777;BME280;8505;49.456;8.164;2023-02-12T08:31:09;101933.00;;;6.23;83.93
16777;BME280;8505;49.456;8.164;2023-02-12T08:33:37;101926.53;;;6.43;84.61
16777;BME280;8505;49.456;8.164;2023-02-12T08:36:07;101936.13;;;6.44;84.32
16777;BME280;8505;49.456;8.164;2023-02-12T08:38:36;101936.47;;;6.82;82.53
16777;BME280;8505;49.456;8.164;2023-02-12T08:41:05;101935.09;;;6.90;82.64
16777;BME280;8505;49.456;8.164;2023-02-12T08:43:33;101938.94;;;6.85;82.92
16777;BME280;8505;49.456;8.164;2023-02-12T08:46:02;101937.06;;;6.87;82.56
16777;BME280;8505;49.456;8.164;2023-02-12T08:48:32;101934.22;;;6.76;83.06
16777;BME280;8505;49.456;8.164;2023-02-12T08:51:04;101933.00;;;6.81;83.64
16777;BME280;8505;49.456;8.164;2023-02-12T08:53:32;101936.31;;;6.85;83.39
16777;BME280;8505;49.456;8.164;2023-02-12T08:56:00;101942.78;;;6.79;83.16
16777;BME280;8505;49.456;8.164;2023-02-12T08:58:28;101948.53;;;7.00;81.50
16777;BME280;8505;49.456;8.164;2023-02-12T09:00:55;101935.84;;;7.21;80.52
16777;BME280;8505;49.456;8.164;2023-02-12T09:03:23;101938.19;;;7.11;80.82
16777;BME280;8505;49.456;8.164;2023-02-12T09:05:52;101933.44;;;7.45;79.57
16777;BME280;8505;49.456;8.164;2023-02-12T09:08:20;101940.63;;;7.14;79.71
16777;BME280;8505;49.456;8.164;2023-02-12T09:10:48;101937.66;;;7.47;79.22
16777;BME280;8505;49.456;8.164;2023-02-12T09:13:16;101938.88;;;7.42;79.84
16777;BME280;8505;49.456;8.164;2023-02-12T09:15:44;101946.06;;;7.11;79.53
16777;BME280;8505;49.456;8.164;2023-02-12T09:18:13;101946.38;;;6.78;82.34
16777;BME280;8505;49.456;8.164;2023-02-12T09:20:43;101948.63;;;7.13;81.05
16777;BME280;8505;49.456;8.164;2023-02-12T09:23:13;101952.28;;;7.10;80.80
16777;BME280;8505;49.456;8.164;2023-02-12T09:25:42;101951.25;;;7.13;81.34
16777;BME280;8505;49.456;8.164;2023-02-12T09:28:10;101944.91;;;7.44;80.42
16777;BME280;8505;49.456;8.164;2023-02-12T09:30:39;101949.28;;;7.30;80.28
16777;BME280;8505;49.456;8.164;2023-02-12T09:33:09;101955.47;;;7.29;80.52
16777;BME280;8505;49.456;8.164;2023-02-12T09:35:38;101946.84;;;7.13;81.84
16777;BME280;8505;49.456;8.164;2023-02-12T09:38:07;101942.34;;;7.56;80.72
16777;BME280;8505;49.456;8.164;2023-02-12T09:40:43;101945.84;;;7.57;80.50
16777;BME280;8505;49.456;8.164;2023-02-12T09:43:16;101949.31;;;7.57;80.94
16777;BME280;8505;49.456;8.164;2023-02-12T09:45:52;101954.81;;;7.40;81.15
16777;BME280;8505;49.456;8.164;2023-02-12T09:48:50;101957.47;;;7.12;81.91
16777;BME280;8505;49.456;8.164;2023-02-12T09:51:21;101954.72;;;7.42;80.93
16777;BME280;8505;49.456;8.164;2023-02-12T09:53:54;101957.72;;;7.50;81.53
16777;BME280;8505;49.456;8.164;2023-02-12T09:56:27;101959.34;;;7.38;81.21
16777;BME280;8505;49.456;8.164;2023-02-12T09:58:58;101960.44;;;7.48;80.10
16777;BME280;8505;49.456;8.164;2023-02-12T10:01:26;101957.78;;;7.62;80.67
16777;BME280;8505;49.456;8.164;2023-02-12T10:03:54;101965.06;;;7.59;80.83
16777;BME280;8505;49.456;8.164;2023-02-12T10:06:25;101955.63;;;7.55;80.73
16777;BME280;8505;49.456;8.164;2023-02-12T10:08:58;101951.59;;;7.49;81.42
16777;BME280;8505;49.456;8.164;2023-02-12T10:11:49;101956.22;;;7.46;81.31
16777;BME280;8505;49.456;8.164;2023-02-12T10:14:54;101950.03;;;7.73;80.31
16777;BME280;8505;49.456;8.164;2023-02-12T10:17:32;101960.50;;;7.75;80.36
16777;BME280;8505;49.456;8.164;2023-02-12T10:20:26;101952.59;;;7.61;81.21
16777;BME280;8505;49.456;8.164;2023-02-12T10:23:05;101954.78;;;7.95;79.49
16777;BME280;8505;49.456;8.164;2023-02-12T10:25:44;101952.28;;;7.80;80.19
16777;BME280;8505;49.456;8.164;2023-02-12T10:28:18;101947.13;;;7.91;79.60
16777;BME280;8505;49.456;8.164;2023-02-12T10:30:49;101946.09;;;7.93;79.04
16777;BME280;8505;49.456;8.164;2023-02-12T10:33:24;101943.16;;;7.98;79.48
16777;BME280;8505;49.456;8.164;2023-02-12T10:35:57;101949.09;;;7.75;80.41
16777;BME280;8505;49.456;8.164;2023-02-12T10:38:29;101944.56;;;7.77;80.93
16777;BME280;8505;49.456;8.164;2023-02-12T10:40:57;101937.66;;;7.88;79.98
16777;BME280;8505;49.456;8.164;2023-02-12T10:43:29;101940.56;;;8.10;79.69
16777;BME280;8505;49.456;8.164;2023-02-12T10:45:57;101934.94;;;8.02;79.36
16777;BME280;8505;49.456;8.164;2023-02-12T10:48:29;101937.47;;;8.04;80.09
16777;BME280;8505;49.456;8.164;2023-02-12T10:51:07;101938.56;;;8.01;79.40
16777;BME280;8505;49.456;8.164;2023-02-12T10:53:40;101934.75;;;8.05;80.06
16777;BME280;8505;49.456;8.164;2023-02-12T10:56:13;101929.91;;;8.12;79.87
16777;BME280;8505;49.456;8.164;2023-02-12T10:58:54;101923.72;;;8.26;78.85
16777;BME280;8505;49.456;8.164;2023-02-12T11:01:25;101921.78;;;8.15;79.82
16777;BME280;8505;49.456;8.164;2023-02-12T11:03:54;101921.44;;;8.46;79.35
16777;BME280;8505;49.456;8.164;2023-02-12T11:06:24;101923.06;;;8.62;78.39
16777;BME280;8505;49.456;8.164;2023-02-12T11:08:53;101919.56;;;8.61;78.49
16777;BME280;8505;49.456;8.164;2023-02-12T11:11:23;101924.13;;;8.72;77.83
16777;BME280;8505;49.456;8.164;2023-02-12T11:13:59;101921.56;;;8.70;77.94
16777;BME280;8505;49.456;8.164;2023-02-12T11:16:31;101909.34;;;8.82;77.91
16777;BME280;8505;49.456;8.164;2023-02-12T11:19:02;101911.44;;;8.51;78.62
16777;BME280;8505;49.456;8.164;2023-02-12T11:21:31;101914.28;;;8.48;78.40
16777;BME280;8505;49.456;8.164;2023-02-12T11:24:21;101905.44;;;8.62;78.27
16777;BME280;8505;49.456;8.164;2023-02-12T11:26:49;101911.31;;;8.40;78.18
16777;BME280;8505;49.456;8.164;2023-02-12T11:29:20;101899.72;;;8.81;77.96
16777;BME280;8505;49.456;8.164;2023-02-12T11:32:01;101896.84;;;8.97;77.30
16777;BME280;8505;49.456;8.164;2023-02-12T11:34:29;101899.63;;;8.82;76.65
16777;BME280;8505;49.456;8.164;2023-02-12T11:36:57;101894.00;;;8.49;78.97
16777;BME280;8505;49.456;8.164;2023-02-12T11:39:27;101899.41;;;8.73;77.96
16777;BME280;8505;49.456;8.164;2023-02-12T11:41:57;101886.16;;;9.11;76.64
16777;BME280;8505;49.456;8.164;2023-02-12T11:44:28;101892.75;;;8.67;78.23
16777;BME280;8505;49.456;8.164;2023-02-12T11:47:00;101886.06;;;9.00;76.70
16777;BME280;8505;49.456;8.164;2023-02-12T11:49:37;101888.06;;;8.83;78.03
16777;BME280;8505;49.456;8.164;2023-02-12T11:52:17;101883.63;;;9.33;76.17
16777;BME280;8505;49.456;8.164;2023-02-12T11:54:48;101881.91;;;9.08;75.00
16777;BME280;8505;49.456;8.164;2023-02-12T11:57:36;101872.38;;;9.18;76.11
16777;BME280;8505;49.456;8.164;2023-02-12T12:00:11;101872.50;;;9.17;76.37
16777;BME280;8505;49.456;8.164;2023-02-12T12:02:44;101871.97;;;9.48;75.15
16777;BME280;8505;49.456;8.164;2023-02-12T12:05:15;101863.53;;;9.43;75.71
16777;BME280;8505;49.456;8.164;2023-02-12T12:07:52;101865.50;;;9.52;74.71
16777;BME280;8505;49.456;8.164;2023-02-12T12:10:31;101866.72;;;9.59;74.20
16777;BME280;8505;49.456;8.164;2023-02-12T12:13:03;101865.22;;;9.68;73.32
16777;BME280;8505;49.456;8.164;2023-02-12T12:15:36;101874.31;;;9.40;74.00
16777;BME280;8505;49.456;8.164;2023-02-12T12:18:26;101871.81;;;9.62;74.23
16777;BME280;8505;49.456;8.164;2023-02-12T12:21:19;101866.66;;;9.24;74.19
16777;BME280;8505;49.456;8.164;2023-02-12T12:23:54;101864.59;;;9.64;73.68
16777;BME280;8505;49.456;8.164;2023-02-12T12:26:25;101863.75;;;9.40;73.59
16777;BME280;8505;49.456;8.164;2023-02-12T12:28:59;101855.66;;;9.54;74.21
16777;BME280;8505;49.456;8.164;2023-02-12T12:31:32;101852.72;;;9.10;75.48
16777;BME280;8505;49.456;8.164;2023-02-12T12:34:05;101844.91;;;9.68;73.90
16777;BME280;8505;49.456;8.164;2023-02-12T12:36:59;101848.81;;;9.39;74.12
16777;BME280;8505;49.456;8.164;2023-02-12T12:39:34;101845.00;;;9.67;73.90
16777;BME280;8505;49.456;8.164;2023-02-12T12:45:23;101852.06;;;9.55;73.58
16777;BME280;8505;49.456;8.164;2023-02-12T12:48:07;101839.19;;;9.38;73.89
16777;BME280;8505;49.456;8.164;2023-02-12T12:50:54;101843.28;;;9.90;72.94
16777;BME280;8505;49.456;8.164;2023-02-12T12:53:35;101842.25;;;10.03;71.47
16777;BME280;8505;49.456;8.164;2023-02-12T12:56:27;101834.88;;;9.96;71.38
16777;BME280;8505;49.456;8.164;2023-02-12T13:02:26;101828.81;;;9.83;71.63
16777;BME280;8505;49.456;8.164;2023-02-12T13:05:52;101823.06;;;9.89;71.65
16777;BME280;8505;49.456;8.164;2023-02-12T13:08:48;101827.91;;;9.95;70.97
16777;BME280;8505;49.456;8.164;2023-02-12T13:11:31;101818.31;;;10.05;70.47
16777;BME280;8505;49.456;8.164;2023-02-12T13:14:07;101831.78;;;10.02;70.50
16777;BME280;8505;49.456;8.164;2023-02-12T13:16:45;101823.56;;;9.94;70.85
16777;BME280;8505;49.456;8.164;2023-02-12T13:19:30;101819.13;;;9.94;70.26
16777;BME280;8505;49.456;8.164;2023-02-12T13:22:04;101814.97;;;9.68;70.87
16777;BME280;8505;49.456;8.164;2023-02-12T13:24:39;101814.28;;;9.88;70.34
16777;BME280;8505;49.456;8.164;2023-02-12T13:27:13;101808.41;;;9.96;69.88
16777;BME280;8505;49.456;8.164;2023-02-12T13:29:43;101810.25;;;10.06;69.87
16777;BME280;8505;49.456;8.164;2023-02-12T13:32:15;101813.50;;;9.99;70.05
16777;BME280;8505;49.456;8.164;2023-02-12T13:34:51;101811.03;;;10.20;69.66
16777;BME280;8505;49.456;8.164;2023-02-12T13:37:28;101813.34;;;10.24;69.46
16777;BME280;8505;49.456;8.164;2023-02-12T13:40:03;101807.75;;;10.05;70.30
16777;BME280;8505;49.456;8.164;2023-02-12T13:42:40;101811.72;;;10.10;70.16
16777;BME280;8505;49.456;8.164;2023-02-12T13:45:23;101805.19;;;10.03;69.81
16777;BME280;8505;49.456;8.164;2023-02-12T13:48:02;101802.66;;;10.02;69.92